createdAt,value
2019-02-19T00:02:13.150Z,102046.20
2019-02-19T00:04:43.903Z,102043.12
2019-02-19T00:07:14.552Z,102045.30
2019-02-19T00:09:45.410Z,102042.55
2019-02-19T00:12:16.172Z,102045.38
2019-02-19T00:14:46.921Z,102039.31
2019-02-19T00:17:17.780Z,102037.14
2019-02-19T00:19:48.525Z,102032.12
2019-02-19T00:22:20.231Z,102040.34
2019-02-19T00:24:51.059Z,102036.68
2019-02-19T00:27:21.694Z,102036.76
2019-02-19T00:29:52.563Z,102034.98
2019-02-19T00:32:23.434Z,102040.34
2019-02-19T00:34:54.154Z,102042.52
2019-02-19T00:37:24.807Z,102042.66
2019-02-19T00:39:55.566Z,102044.66
2019-02-19T00:42:26.334Z,102042.71
2019-02-19T00:44:57.394Z,102048.55
2019-02-19T00:47:28.150Z,102046.50
2019-02-19T00:49:58.903Z,102052.48
2019-02-19T00:52:29.432Z,102049.11
2019-02-19T00:54:59.512Z,102054.14
2019-02-19T00:57:30.037Z,102058.02
2019-02-19T01:00:00.791Z,102050.87
2019-02-19T01:02:31.530Z,102050.39
2019-02-19T01:05:02.404Z,102048.11
2019-02-19T01:07:33.156Z,102046.02
2019-02-19T01:10:04.629Z,102048.84
2019-02-19T01:12:35.099Z,102054.61
2019-02-19T01:15:08.668Z,102053.82
2019-02-19T01:17:39.016Z,102047.45
2019-02-19T01:20:10.200Z,102051.64
2019-02-19T01:22:41.974Z,102047.77
2019-02-19T01:25:13.017Z,102047.72
2019-02-19T01:27:43.790Z,102050.07
2019-02-19T01:30:14.441Z,102052.00
2019-02-19T01:32:45.276Z,102057.66
2019-02-19T01:35:16.053Z,102056.48
2019-02-19T01:37:45.908Z,102052.97
2019-02-19T01:40:16.434Z,102046.70
2019-02-19T01:42:47.169Z,102056.16
2019-02-19T01:45:17.838Z,102060.13
2019-02-19T01:47:49.409Z,102065.33
2019-02-19T01:50:20.042Z,102064.30
2019-02-19T01:52:50.123Z,102068.88
2019-02-19T01:55:20.650Z,102069.76
2019-02-19T01:57:51.280Z,102064.56
2019-02-19T02:00:22.035Z,102070.95
2019-02-19T02:02:52.896Z,102069.81
2019-02-19T02:05:23.667Z,102073.31
2019-02-19T02:07:54.315Z,102074.52
2019-02-19T02:10:25.051Z,102074.02
2019-02-19T02:12:55.926Z,102071.98
2019-02-19T02:15:26.680Z,102075.06
2019-02-19T02:17:57.538Z,102080.77
2019-02-19T02:20:28.271Z,102083.70
2019-02-19T02:22:59.946Z,102084.61
2019-02-19T02:25:30.820Z,102080.27
2019-02-19T02:28:01.576Z,102079.55
2019-02-19T02:30:32.331Z,102079.28
2019-02-19T02:33:03.183Z,102092.08
2019-02-19T02:35:33.940Z,102095.70
2019-02-19T02:38:04.589Z,102102.67
2019-02-19T02:40:35.324Z,102096.58
2019-02-19T02:43:06.080Z,102102.33
2019-02-19T02:45:36.731Z,102101.98
2019-02-19T02:48:07.405Z,102104.17
2019-02-19T02:50:38.258Z,102100.91
2019-02-19T02:53:08.995Z,102107.86
2019-02-19T02:55:39.645Z,102108.80
2019-02-19T02:58:10.314Z,102109.64
2019-02-19T03:00:41.048Z,102113.69
2019-02-19T03:03:11.907Z,102119.38
2019-02-19T03:05:47.279Z,102122.02
2019-02-19T03:08:17.932Z,102118.14
2019-02-19T03:10:48.787Z,102109.04
2019-02-19T03:13:19.520Z,102116.45
2019-02-19T03:15:50.306Z,102116.16
2019-02-19T03:18:20.945Z,102112.97
2019-02-19T03:20:51.806Z,102115.61
2019-02-19T03:23:23.460Z,102114.83
2019-02-19T03:25:54.333Z,102112.39
2019-02-19T03:28:24.964Z,102109.70
2019-02-19T03:30:55.636Z,102112.05
2019-02-19T03:33:26.581Z,102107.28
2019-02-19T03:35:59.784Z,102110.83
2019-02-19T03:38:30.760Z,102107.44
2019-02-19T03:41:00.402Z,102104.21
2019-02-19T03:43:30.938Z,102102.61
2019-02-19T03:46:01.674Z,102102.38
2019-02-19T03:48:32.324Z,102111.49
2019-02-19T03:51:03.018Z,102107.39
2019-02-19T03:53:33.860Z,102113.23
2019-02-19T03:56:04.614Z,102111.27
2019-02-19T03:58:35.237Z,102115.09
2019-02-19T04:01:05.900Z,102107.95
2019-02-19T04:42:38.529Z,102151.91
2019-02-19T04:45:46.440Z,102150.77
2019-02-19T04:48:17.302Z,102160.75
2019-02-19T04:50:48.053Z,102162.27
2019-02-19T04:53:18.684Z,102165.02
2019-02-19T04:55:49.561Z,102176.06
2019-02-19T04:58:20.313Z,102169.02
2019-02-19T05:00:50.944Z,102173.93
2019-02-19T05:03:21.616Z,102180.14
2019-02-19T05:05:52.472Z,102184.42
2019-02-19T05:08:23.226Z,102191.14
2019-02-19T05:10:53.984Z,102195.08
2019-02-19T05:13:24.745Z,102197.38
2019-02-19T05:15:56.920Z,102202.94
2019-02-19T05:18:27.674Z,102204.43
2019-02-19T05:20:58.308Z,102195.83
2019-02-19T05:23:28.273Z,102200.57
2019-02-19T05:25:59.729Z,102211.53
2019-02-19T05:28:30.488Z,102217.08
2019-02-19T05:31:00.227Z,102221.24
2019-02-19T05:33:32.082Z,102217.05
2019-02-19T05:36:02.951Z,102226.06
2019-02-19T05:38:36.574Z,102223.09
2019-02-19T05:41:07.199Z,102229.36
2019-02-19T05:43:37.166Z,102232.36
2019-02-19T05:46:07.582Z,102239.32
2019-02-19T05:48:38.336Z,102238.42
2019-02-19T05:51:09.215Z,102249.48
2019-02-19T05:53:40.067Z,102243.57
2019-02-19T05:56:10.823Z,102250.94
2019-02-19T05:58:41.456Z,102246.30
2019-02-19T06:01:12.329Z,102247.78
2019-02-19T06:03:43.064Z,102250.78
2019-02-19T06:06:13.835Z,102251.45
2019-02-19T06:08:46.106Z,102255.59
2019-02-19T06:11:16.981Z,102254.58
2019-02-19T06:13:47.718Z,102248.12
2019-02-19T06:16:18.387Z,102243.52
2019-02-19T06:18:49.241Z,102246.04
2019-02-19T06:21:21.531Z,102243.78
2019-02-19T06:23:52.896Z,102240.16
2019-02-19T06:26:24.347Z,102244.66
2019-02-19T06:28:57.721Z,102242.14
2019-02-19T06:31:27.287Z,102241.41
2019-02-19T06:33:58.063Z,102246.92
2019-02-19T06:36:28.693Z,102247.42
2019-02-19T06:38:59.567Z,102256.57
2019-02-19T06:41:30.303Z,102247.41
2019-02-19T06:44:01.073Z,102247.09
2019-02-19T06:46:31.711Z,102254.69
2019-02-19T06:49:02.690Z,102255.48
2019-02-19T06:51:33.440Z,102258.80
2019-02-19T06:54:04.177Z,102258.82
2019-02-19T06:56:35.048Z,102254.73
2019-02-19T06:59:05.906Z,102258.06
2019-02-19T07:01:56.295Z,102253.77
2019-02-19T07:04:28.462Z,102255.14
2019-02-19T07:06:59.012Z,102256.69
2019-02-19T07:09:29.903Z,102251.79
2019-02-19T07:12:00.645Z,102254.53
2019-02-19T07:14:31.391Z,102252.57
2019-02-19T07:17:01.921Z,102258.79
2019-02-19T07:19:32.797Z,102253.87
2019-02-19T07:22:03.432Z,102260.34
2019-02-19T07:24:34.204Z,102258.77
2019-02-19T07:27:05.758Z,102253.27
2019-02-19T07:29:36.537Z,102253.53
2019-02-19T07:32:07.284Z,102257.47
2019-02-19T07:34:38.138Z,102259.53
2019-02-19T07:37:08.896Z,102258.39
2019-02-19T07:39:39.527Z,102256.16
2019-02-19T07:42:10.279Z,102258.08
2019-02-19T07:44:41.155Z,102259.99
2019-02-19T07:47:12.011Z,102259.34
2019-02-19T07:49:41.859Z,102265.31
2019-02-19T07:52:12.396Z,102262.06
2019-02-19T07:54:43.153Z,102262.95
2019-02-19T07:57:13.990Z,102263.00
2019-02-19T07:59:44.740Z,102259.14
2019-02-19T08:02:14.923Z,102261.95
2019-02-19T08:04:45.447Z,102259.81
2019-02-19T08:07:16.101Z,102260.24
2019-02-19T08:09:46.050Z,102250.02
2019-02-19T08:12:16.463Z,102256.18
2019-02-19T08:14:46.645Z,102259.98
2019-02-19T08:17:17.150Z,102259.99
2019-02-19T08:19:48.858Z,102250.14
2019-02-19T08:22:19.803Z,102260.40
2019-02-19T08:24:50.555Z,102260.73
2019-02-19T08:27:22.333Z,102263.61
2019-02-19T08:29:53.087Z,102256.44
2019-02-19T08:32:23.842Z,102263.80
2019-02-19T08:34:54.575Z,102263.00
2019-02-19T08:37:24.648Z,102267.36
2019-02-19T08:39:55.062Z,102266.98
2019-02-19T08:42:25.245Z,102260.69
2019-02-19T08:44:55.649Z,102261.86
2019-02-19T08:47:26.529Z,102258.38
2019-02-19T08:49:58.075Z,102254.41
2019-02-19T08:52:28.646Z,102257.20
2019-02-19T08:54:59.401Z,102253.14
2019-02-19T08:57:30.152Z,102261.06
2019-02-19T09:00:01.015Z,102255.75
2019-02-19T09:02:31.868Z,102255.85
2019-02-19T09:05:02.499Z,102258.53
2019-02-19T09:07:32.467Z,102258.53
2019-02-19T09:10:02.879Z,102258.89
2019-02-19T09:12:33.064Z,102255.25
2019-02-19T09:15:03.571Z,102252.03
2019-02-19T09:17:33.652Z,102246.80
2019-02-19T09:20:05.199Z,102250.47
2019-02-19T09:22:35.639Z,102251.44
2019-02-19T09:25:08.424Z,102249.20
2019-02-19T09:27:39.239Z,102254.91
2019-02-19T09:30:12.387Z,102239.33
2019-02-19T09:32:42.859Z,102246.43
2019-02-19T09:35:12.917Z,102240.10
2019-02-19T09:37:43.441Z,102239.13
2019-02-19T09:40:13.503Z,102242.45
2019-02-19T09:42:44.012Z,102237.03
2019-02-19T09:45:13.979Z,102238.89
2019-02-19T09:47:44.514Z,102226.34
2019-02-19T09:50:15.249Z,102228.50
2019-02-19T09:52:45.227Z,102227.52
2019-02-19T09:55:15.861Z,102227.85
2019-02-19T09:57:45.919Z,102217.41
2019-02-19T10:00:16.322Z,102222.23
2019-02-19T10:02:46.402Z,102216.80
2019-02-19T10:05:17.240Z,102205.71
2019-02-19T10:07:47.969Z,102210.53
2019-02-19T10:10:19.058Z,102203.22
2019-02-19T10:12:49.298Z,102200.96
2019-02-19T10:15:19.353Z,102195.59
2019-02-19T10:17:49.754Z,102201.70
2019-02-19T10:20:20.431Z,102199.71
2019-02-19T10:22:51.060Z,102189.52
2019-02-19T10:25:21.142Z,102191.62
2019-02-19T10:27:52.668Z,102191.78
2019-02-19T10:30:23.347Z,102188.00
2019-02-19T10:32:54.406Z,102189.20
2019-02-19T10:35:24.352Z,102183.16
2019-02-19T10:37:54.886Z,102179.53
2019-02-19T10:40:24.838Z,102182.75
2019-02-19T10:42:55.265Z,102178.77
2019-02-19T10:45:26.950Z,102178.42
2019-02-19T10:47:57.185Z,102178.47
2019-02-19T10:50:27.248Z,102171.16
2019-02-19T10:52:57.772Z,102171.34
2019-02-19T10:55:28.525Z,102166.83
2019-02-19T10:57:58.384Z,102167.70
2019-02-19T11:00:28.910Z,102169.55
2019-02-19T11:02:59.562Z,102173.96
2019-02-19T11:05:29.413Z,102170.70
2019-02-19T11:07:59.822Z,102161.91
2019-02-19T11:10:30.573Z,102164.84
2019-02-19T11:13:00.836Z,102161.09
2019-02-19T11:15:31.491Z,102153.81
2019-02-19T11:18:01.449Z,102155.30
2019-02-19T11:20:31.973Z,102154.80
2019-02-19T11:23:02.139Z,102159.84
2019-02-19T11:25:32.668Z,102155.23
2019-02-19T11:28:03.536Z,102150.38
2019-02-19T11:30:33.371Z,102150.34
2019-02-19T11:33:05.128Z,102150.36
2019-02-19T11:35:35.354Z,102157.53
2019-02-19T11:38:05.324Z,102149.33
2019-02-19T11:40:35.856Z,102150.95
2019-02-19T11:43:05.715Z,102149.60
2019-02-19T11:45:36.238Z,102155.16
2019-02-19T11:48:06.671Z,102146.09
2019-02-19T11:50:36.753Z,102145.03
2019-02-19T11:53:07.260Z,102145.00
2019-02-19T11:55:38.187Z,102140.62
2019-02-19T11:58:08.763Z,102143.20
2019-02-19T12:00:40.276Z,102146.72
2019-02-19T12:03:10.782Z,102142.92
2019-02-19T12:05:41.435Z,102139.13
2019-02-19T12:08:12.003Z,102146.17
2019-02-19T12:10:42.063Z,102147.66
2019-02-19T12:13:12.589Z,102150.48
2019-02-19T12:15:42.549Z,102145.55
2019-02-19T12:18:12.949Z,102149.39
2019-02-19T12:20:42.821Z,102149.60
2019-02-19T12:23:13.351Z,102139.52
2019-02-19T12:25:43.420Z,102143.33
2019-02-19T12:28:14.843Z,102154.67
2019-02-19T12:30:45.513Z,102144.11
2019-02-19T12:33:16.268Z,102136.94
2019-02-19T12:35:46.217Z,102133.48
2019-02-19T12:38:16.753Z,102138.85
2019-02-19T12:40:46.817Z,102139.74
2019-02-19T12:43:17.338Z,102132.87
2019-02-19T12:45:47.299Z,102135.13
2019-02-19T12:48:17.837Z,102131.84
2019-02-19T12:50:48.659Z,102132.05
2019-02-19T12:53:18.528Z,102133.80
2019-02-19T12:55:49.064Z,102126.98
2019-02-19T12:58:19.025Z,102131.06
2019-02-19T13:00:49.547Z,102134.66
2019-02-19T13:03:19.610Z,102120.22
2019-02-19T13:05:50.033Z,102121.85
2019-02-19T13:08:20.096Z,102116.45
2019-02-19T13:10:50.622Z,102114.62
2019-02-19T13:13:21.273Z,102116.70
2019-02-19T13:15:51.232Z,102125.45
2019-02-19T13:18:21.654Z,102114.18
2019-02-19T13:20:51.515Z,102106.59
2019-02-19T13:23:22.036Z,102112.22
2019-02-19T13:25:52.099Z,102109.53
2019-02-19T13:28:22.705Z,102102.74
2019-02-19T13:30:53.362Z,102104.90
2019-02-19T13:33:24.134Z,102102.66
2019-02-19T13:35:54.886Z,102105.69
2019-02-19T13:38:25.744Z,102103.11
2019-02-19T13:40:55.807Z,102108.71
2019-02-19T13:43:26.309Z,102102.64
2019-02-19T13:45:58.603Z,102100.38
2019-02-19T13:48:28.582Z,102100.80
2019-02-19T13:50:59.104Z,102101.98
2019-02-19T13:53:30.590Z,102098.81
2019-02-19T13:56:02.030Z,102094.44
2019-02-19T13:58:32.478Z,102087.63
2019-02-19T14:01:02.340Z,102093.39
2019-02-19T14:03:32.869Z,102093.81
2019-02-19T14:06:02.836Z,102083.63
2019-02-19T14:08:33.354Z,102077.36
2019-02-19T14:11:03.905Z,102075.77
2019-02-19T14:13:33.969Z,102078.72
2019-02-19T14:16:09.201Z,102079.79
2019-02-19T14:18:48.340Z,102072.26
2019-02-19T14:21:35.666Z,102068.63
2019-02-19T14:24:24.300Z,102064.33
2019-02-19T14:27:13.070Z,102053.69
2019-02-19T14:29:58.347Z,102056.41
2019-02-19T14:32:33.600Z,102055.83
2019-02-19T14:35:25.114Z,102051.70
2019-02-19T14:38:13.646Z,102050.30
2019-02-19T14:40:48.999Z,102050.39
2019-02-19T14:43:39.823Z,102054.50
2019-02-19T14:46:14.750Z,102051.86
2019-02-19T14:49:02.397Z,102048.64
2019-02-19T14:51:34.588Z,102059.30
2019-02-19T14:54:06.870Z,102054.94
2019-02-19T14:56:42.103Z,102055.89
2019-02-19T14:59:17.460Z,102055.36
2019-02-19T15:01:52.642Z,102057.85
2019-02-19T15:04:27.785Z,102053.66
2019-02-19T15:07:06.187Z,102051.52
2019-02-19T15:09:41.441Z,102050.08
2019-02-19T15:12:13.755Z,102048.84
2019-02-19T15:15:04.023Z,102040.39
2019-02-19T15:17:44.901Z,102039.80
2019-02-19T15:20:33.070Z,102038.61
2019-02-19T15:23:08.397Z,102039.40
2019-02-19T15:29:19.732Z,102037.55
2019-02-19T15:35:07.492Z,102041.88
2019-02-19T15:37:48.497Z,102043.41
2019-02-19T15:40:26.515Z,102037.37
2019-02-19T15:42:58.900Z,102040.17
2019-02-19T15:45:31.187Z,102047.16
2019-02-19T15:48:21.679Z,102040.98
2019-02-19T15:51:02.949Z,102038.77
2019-02-19T15:53:41.171Z,102040.02
2019-02-19T15:56:20.842Z,102052.94
2019-02-19T15:58:59.041Z,102047.12
2019-02-19T16:01:49.862Z,102054.08
2019-02-19T16:04:34.101Z,102049.07
2019-02-19T16:07:22.459Z,102047.67
2019-02-19T16:09:54.756Z,102048.70
2019-02-19T16:12:32.968Z,102044.45
2019-02-19T16:15:20.518Z,102044.49
2019-02-19T16:18:02.074Z,102037.67
2019-02-19T16:20:37.349Z,102039.47
2019-02-19T16:23:09.613Z,102039.45
2019-02-19T16:25:56.834Z,102042.03
2019-02-19T16:28:29.041Z,102035.59
2019-02-19T16:31:13.078Z,102043.52
2019-02-19T16:33:46.502Z,102044.47
2019-02-19T16:36:37.102Z,102046.89
2019-02-19T16:39:25.850Z,102047.13
2019-02-19T16:42:11.167Z,102042.47
2019-02-19T16:44:55.687Z,102050.22
2019-02-19T16:47:30.331Z,102046.91
2019-02-19T16:50:07.655Z,102042.56
2019-02-19T16:52:42.658Z,102043.94
2019-02-19T16:55:17.629Z,102042.63
2019-02-19T16:57:49.713Z,102040.32
2019-02-19T17:00:22.570Z,102031.39
2019-02-19T17:03:01.789Z,102032.77
2019-02-19T17:05:49.595Z,102035.70
2019-02-19T17:08:40.081Z,102030.83
2019-02-19T17:11:12.367Z,102028.11
2019-02-19T17:13:58.025Z,102022.06
2019-02-19T17:16:24.409Z,102019.53
2019-02-19T17:18:59.441Z,102022.67
2019-02-19T17:21:40.524Z,102012.36
2019-02-19T17:24:29.275Z,102013.67
2019-02-19T17:27:12.412Z,102012.92
2019-02-19T17:29:49.964Z,102004.95
2019-02-19T17:32:27.006Z,101994.26
2019-02-19T17:35:16.590Z,101994.45
2019-02-19T17:38:14.201Z,101991.13
2019-02-19T17:40:38.264Z,101994.45
2019-02-19T17:43:15.958Z,101990.52
2019-02-19T17:45:51.116Z,101989.55
2019-02-19T17:48:28.819Z,101987.84
2019-02-19T17:51:13.408Z,101982.59
2019-02-19T17:53:58.080Z,101974.77
2019-02-19T17:56:36.576Z,101979.08
2019-02-19T17:59:14.568Z,101968.80
2019-02-19T18:01:46.876Z,101972.10
2019-02-19T18:04:19.062Z,101965.48
2019-02-19T18:06:54.191Z,101965.87
2019-02-19T18:09:42.865Z,101962.55
2019-02-19T18:12:18.118Z,101958.48
2019-02-19T18:14:59.611Z,101953.41
2019-02-19T18:17:50.309Z,101958.10
2019-02-19T18:20:21.062Z,101955.16
2019-02-19T18:22:51.566Z,101952.23
2019-02-19T18:25:21.959Z,101945.07
2019-02-19T18:27:52.797Z,101945.65
2019-02-19T18:30:24.081Z,101943.11
2019-02-19T18:32:55.016Z,101944.08
2019-02-19T18:35:27.122Z,101938.84
2019-02-19T18:37:57.876Z,101944.88
2019-02-19T18:40:28.627Z,101941.18
2019-02-19T18:42:59.567Z,101937.50
2019-02-19T18:45:30.341Z,101937.69
2019-02-19T18:48:01.095Z,101936.52
2019-02-19T18:50:31.949Z,101936.11
2019-02-19T18:53:02.712Z,101928.92
2019-02-19T18:55:33.446Z,101925.63
2019-02-19T18:58:03.519Z,101928.73
2019-02-19T19:00:34.045Z,101926.78
2019-02-19T19:03:04.208Z,101922.31
2019-02-19T19:05:34.717Z,101920.38
2019-02-19T19:08:05.389Z,101911.05
2019-02-19T19:10:36.119Z,101914.92
2019-02-19T19:13:06.995Z,101918.23
2019-02-19T19:15:37.748Z,101911.41
2019-02-19T19:18:08.401Z,101917.05
2019-02-19T19:20:39.268Z,101912.59
2019-02-19T19:23:10.020Z,101911.81
2019-02-19T19:25:40.764Z,101910.27
2019-02-19T19:28:11.604Z,101904.05
2019-02-19T19:30:42.478Z,101905.20
2019-02-19T19:33:13.230Z,101898.80
2019-02-19T19:35:44.887Z,101905.03
2019-02-19T19:38:15.350Z,101898.98
2019-02-19T19:40:46.003Z,101899.78
2019-02-19T19:43:16.843Z,101904.64
2019-02-19T19:45:47.614Z,101901.71
2019-02-19T19:48:18.365Z,101906.38
2019-02-19T19:50:49.017Z,101898.23
2019-02-19T19:53:19.873Z,101902.09
2019-02-19T19:55:50.629Z,101898.02
2019-02-19T19:58:21.382Z,101896.83
2019-02-19T20:00:52.241Z,101891.17
2019-02-19T20:03:23.094Z,101886.92
2019-02-19T20:05:53.850Z,101889.61
2019-02-19T20:08:24.501Z,101885.77
2019-02-19T20:10:55.236Z,101878.19
2019-02-19T20:13:26.111Z,101879.53
2019-02-19T20:15:56.864Z,101873.87
2019-02-19T20:18:27.718Z,101874.70
2019-02-19T20:21:00.397Z,101872.56
2019-02-19T20:23:31.172Z,101868.46
2019-02-19T20:26:01.804Z,101868.30
2019-02-19T20:28:35.368Z,101868.87
2019-02-19T20:31:05.893Z,101867.33
2019-02-19T20:33:35.742Z,101871.98
2019-02-19T20:36:07.193Z,101872.36
2019-02-19T20:38:38.046Z,101878.97
2019-02-19T20:41:08.800Z,101861.47
2019-02-19T20:43:39.669Z,101879.75
2019-02-19T20:46:10.521Z,101871.19
2019-02-19T20:48:41.351Z,101879.12
2019-02-19T20:51:12.121Z,101871.39
2019-02-19T20:53:42.774Z,101865.56
2019-02-19T20:56:13.509Z,101870.42
2019-02-19T20:58:44.270Z,101867.69
2019-02-19T21:01:15.041Z,101863.61
2019-02-19T21:03:45.689Z,101867.49
2019-02-19T21:06:16.423Z,101870.80
2019-02-19T21:08:47.198Z,101861.86
2019-02-19T21:11:17.826Z,101864.20
2019-02-19T21:13:47.905Z,101858.16
2019-02-19T21:16:18.422Z,101861.48
2019-02-19T21:18:49.086Z,101860.51
2019-02-19T21:21:19.940Z,101863.99
2019-02-19T21:23:50.675Z,101860.91
2019-02-19T21:26:21.449Z,101855.05
2019-02-19T21:28:52.097Z,101857.61
2019-02-19T21:31:22.958Z,101853.31
2019-02-19T21:33:53.716Z,101848.45
2019-02-19T21:36:25.364Z,101845.16
2019-02-19T21:38:56.135Z,101844.97
2019-02-19T21:41:26.788Z,101840.30
2019-02-19T21:43:57.745Z,101842.03
2019-02-19T21:46:28.502Z,101847.89
2019-02-19T21:48:59.235Z,101843.22
2019-02-19T21:51:29.785Z,101845.95
2019-02-19T21:54:00.659Z,101837.00
2019-02-19T21:56:31.415Z,101845.52
2019-02-19T21:59:02.168Z,101837.78
2019-02-19T22:01:32.817Z,101836.98
2019-02-19T22:04:03.658Z,101832.29
2019-02-19T22:06:34.428Z,101838.32
2019-02-19T22:09:05.934Z,101840.84
2019-02-19T22:11:36.226Z,101827.98
2019-02-19T22:14:06.998Z,101832.88
2019-02-19T22:16:37.752Z,101836.15
2019-02-19T22:19:08.433Z,101829.77
2019-02-19T22:21:40.775Z,101827.61
2019-02-19T22:24:16.129Z,101823.54
2019-02-19T22:26:46.798Z,101824.89
2019-02-19T22:29:17.543Z,101822.36
2019-02-19T22:31:48.404Z,101820.58
2019-02-19T22:34:19.163Z,101823.30
2019-02-19T22:36:50.957Z,101812.43
2019-02-19T22:39:21.271Z,101808.53
2019-02-19T22:41:51.235Z,101803.63
2019-02-19T22:44:21.956Z,101794.67
2019-02-19T22:46:52.727Z,101800.34
2019-02-19T22:49:23.588Z,101799.18
2019-02-19T22:51:54.322Z,101792.70
2019-02-19T22:54:26.624Z,101796.48
2019-02-19T22:56:57.286Z,101795.30
2019-02-19T22:59:28.117Z,101796.84
2019-02-19T23:02:00.405Z,101790.66
2019-02-19T23:04:31.469Z,101789.47
2019-02-19T23:07:02.219Z,101786.00
2019-02-19T23:09:34.505Z,101788.12
2019-02-19T23:12:05.159Z,101790.60
2019-02-19T23:14:37.158Z,101788.43
2019-02-19T23:17:07.807Z,101785.27
2019-02-19T23:19:38.660Z,101787.34
2019-02-19T23:22:09.419Z,101779.54
2019-02-19T23:24:40.172Z,101786.33
2019-02-19T23:27:11.050Z,101775.90
2019-02-19T23:29:41.884Z,101768.30
2019-02-19T23:32:12.646Z,101772.17
2019-02-19T23:34:43.305Z,101761.45
2019-02-19T23:37:15.066Z,101758.94
2019-02-19T23:39:45.821Z,101759.92
2019-02-19T23:42:16.676Z,101753.55
2019-02-19T23:44:47.515Z,101759.15
2019-02-19T23:47:18.186Z,101759.17
2019-02-19T23:49:49.028Z,101759.59
2019-02-19T23:52:19.676Z,101745.37
2019-02-19T23:54:50.431Z,101737.95
2019-02-19T23:57:21.096Z,101740.25
2019-02-19T23:59:51.963Z,101728.85
